createdAt,value
2023-05-18T00:00:15.488Z,14.37
2023-05-18T00:01:15.549Z,14.27
2023-05-18T00:02:15.518Z,14.22
2023-05-18T00:03:15.642Z,14.16
2023-05-18T00:04:15.655Z,14.19
2023-05-18T00:05:15.576Z,14.22
2023-05-18T00:06:15.591Z,14.17
2023-05-18T00:07:15.591Z,14.20
2023-05-18T00:08:15.599Z,14.24
2023-05-18T00:09:15.644Z,14.29
2023-05-18T00:10:15.715Z,14.36
2023-05-18T00:11:15.684Z,14.43
2023-05-18T00:12:15.745Z,14.54
2023-05-18T00:13:15.792Z,14.60
2023-05-18T00:14:15.785Z,14.63
2023-05-18T00:15:15.778Z,14.47
2023-05-18T00:16:15.904Z,14.37
2023-05-18T00:17:15.840Z,14.29
2023-05-18T00:18:15.843Z,14.17
2023-05-18T00:19:15.886Z,14.19
2023-05-18T00:20:15.813Z,14.20
2023-05-18T00:21:15.830Z,14.20
2023-05-18T00:22:15.830Z,14.30
2023-05-18T00:23:15.895Z,14.37
2023-05-18T00:24:15.963Z,14.48
2023-05-18T00:25:15.963Z,14.56
2023-05-18T00:26:15.966Z,14.58
2023-05-18T00:27:15.994Z,14.60
2023-05-18T00:28:16.006Z,14.67
2023-05-18T00:29:16.009Z,14.64
2023-05-18T00:30:16.063Z,14.61
2023-05-18T00:31:16.057Z,14.60
2023-05-18T00:32:16.068Z,14.61
2023-05-18T00:33:16.098Z,14.66
2023-05-18T00:34:16.194Z,14.68
2023-05-18T00:35:16.207Z,14.71
2023-05-18T00:36:16.239Z,14.74
2023-05-18T00:37:16.280Z,14.71
2023-05-18T00:38:16.353Z,14.75
2023-05-18T00:39:16.345Z,14.79
2023-05-18T00:40:16.378Z,14.79
2023-05-18T00:41:16.408Z,14.72
2023-05-18T00:42:16.429Z,14.63
2023-05-18T00:43:16.437Z,14.39
2023-05-18T00:44:16.417Z,14.16
2023-05-18T00:45:16.480Z,14.09
2023-05-18T00:46:16.527Z,14.12
2023-05-18T00:47:16.506Z,14.19
2023-05-18T00:48:16.621Z,14.17
2023-05-18T00:49:16.556Z,14.23
2023-05-18T00:50:16.593Z,14.29
2023-05-18T00:51:16.602Z,14.34
2023-05-18T00:52:16.688Z,14.40
2023-05-18T00:53:16.741Z,14.44
2023-05-18T00:54:16.770Z,14.48
2023-05-18T00:55:16.828Z,14.52
2023-05-18T00:56:16.882Z,14.60
2023-05-18T00:57:16.945Z,14.66
2023-05-18T00:58:17.015Z,14.61
2023-05-18T00:59:17.017Z,14.64
2023-05-18T01:00:17.125Z,14.64
2023-05-18T01:01:17.204Z,14.57
2023-05-18T01:02:17.259Z,14.60
2023-05-18T01:03:17.295Z,14.67
2023-05-18T01:04:17.320Z,14.70
2023-05-18T01:05:17.390Z,14.72
2023-05-18T01:06:17.424Z,14.78
2023-05-18T01:07:17.475Z,14.79
2023-05-18T01:08:17.488Z,14.85
2023-05-18T01:09:17.519Z,14.85
2023-05-18T01:10:17.591Z,14.82
2023-05-18T01:11:17.665Z,14.79
2023-05-18T01:12:17.666Z,14.82
2023-05-18T01:13:17.698Z,14.84
2023-05-18T01:14:17.720Z,14.82
2023-05-18T01:15:17.756Z,14.82
2023-05-18T01:16:17.763Z,14.52
2023-05-18T01:17:17.839Z,14.40
2023-05-18T01:18:17.879Z,14.19
2023-05-18T01:19:17.904Z,14.08
2023-05-18T01:20:17.844Z,14.27
2023-05-18T01:21:17.809Z,14.29
2023-05-18T01:22:17.821Z,14.37
2023-05-18T01:23:17.876Z,14.43
2023-05-18T01:24:17.900Z,14.45
2023-05-18T01:25:17.949Z,14.41
2023-05-18T01:26:17.980Z,14.15
2023-05-18T01:27:17.958Z,14.13
2023-05-18T01:28:17.962Z,14.13
2023-05-18T01:29:17.973Z,14.06
2023-05-18T01:30:17.969Z,13.95
2023-05-18T01:31:18.088Z,13.92
2023-05-18T01:32:17.999Z,13.82
2023-05-18T01:33:18.027Z,13.81
2023-05-18T01:34:17.987Z,13.85
2023-05-18T01:35:18.021Z,13.79
2023-05-18T01:36:18.031Z,13.78
2023-05-18T01:37:18.001Z,13.78
2023-05-18T01:38:17.997Z,13.86
2023-05-18T01:39:17.991Z,13.95
2023-05-18T01:40:18.000Z,14.06
2023-05-18T01:41:18.036Z,14.09
2023-05-18T01:42:18.106Z,14.19
2023-05-18T01:43:18.206Z,14.24
2023-05-18T01:44:18.222Z,14.30
2023-05-18T01:45:18.290Z,14.39
2023-05-18T01:46:18.421Z,14.43
2023-05-18T01:47:18.344Z,14.50
2023-05-18T01:48:18.403Z,14.54
2023-05-18T01:49:18.431Z,14.60
2023-05-18T01:50:18.422Z,14.60
2023-05-18T01:51:18.413Z,14.56
2023-05-18T01:52:18.392Z,14.63
2023-05-18T01:53:18.418Z,14.64
2023-05-18T01:54:18.412Z,14.60
2023-05-18T01:55:18.394Z,14.51
2023-05-18T01:56:18.379Z,14.56
2023-05-18T01:57:18.399Z,14.56
2023-05-18T01:58:18.392Z,14.56
2023-05-18T01:59:18.387Z,14.51
2023-05-18T02:00:18.432Z,14.56
2023-05-18T02:01:18.530Z,14.54
2023-05-18T02:02:18.609Z,14.41
2023-05-18T02:03:18.669Z,14.47
2023-05-18T02:04:18.673Z,14.54
2023-05-18T02:05:18.653Z,14.56
2023-05-18T02:06:18.624Z,14.58
2023-05-18T02:07:18.636Z,14.60
2023-05-18T02:08:18.700Z,14.60
2023-05-18T02:09:18.722Z,14.57
2023-05-18T02:10:18.712Z,14.57
2023-05-18T02:11:18.754Z,14.61
2023-05-18T02:12:18.828Z,14.61
2023-05-18T02:13:18.783Z,14.60
2023-05-18T02:14:18.770Z,14.63
2023-05-18T02:15:18.771Z,14.57
2023-05-18T02:16:18.854Z,14.17
2023-05-18T02:17:18.804Z,14.27
2023-05-18T02:18:18.750Z,14.20
2023-05-18T02:19:18.886Z,14.03
2023-05-18T02:20:18.806Z,14.13
2023-05-18T02:21:18.805Z,14.17
2023-05-18T02:22:18.847Z,14.23
2023-05-18T02:23:18.835Z,14.24
2023-05-18T02:24:18.889Z,14.36
2023-05-18T02:25:18.909Z,14.32
2023-05-18T02:26:18.895Z,14.37
2023-05-18T02:27:18.910Z,14.41
2023-05-18T02:28:18.917Z,14.50
2023-05-18T02:29:18.962Z,14.51
2023-05-18T02:30:18.994Z,14.58
2023-05-18T02:31:18.971Z,14.60
2023-05-18T02:32:18.959Z,14.63
2023-05-18T02:33:18.997Z,14.56
2023-05-18T02:34:19.031Z,14.61
2023-05-18T02:35:19.004Z,14.68
2023-05-18T02:36:19.042Z,14.68
2023-05-18T02:37:19.065Z,14.70
2023-05-18T02:38:19.064Z,14.68
2023-05-18T02:39:19.047Z,14.64
2023-05-18T02:40:19.101Z,14.67
2023-05-18T02:41:19.151Z,14.66
2023-05-18T02:42:19.156Z,14.71
2023-05-18T02:43:19.178Z,14.71
2023-05-18T02:44:19.250Z,14.64
2023-05-18T02:45:19.278Z,14.66
2023-05-18T02:46:19.395Z,14.67
2023-05-18T02:47:19.402Z,14.68
2023-05-18T02:48:19.499Z,14.58
2023-05-18T02:49:19.512Z,14.51
2023-05-18T02:50:19.559Z,14.56
2023-05-18T02:51:19.601Z,14.57
2023-05-18T02:52:19.683Z,14.63
2023-05-18T02:53:19.753Z,14.67
2023-05-18T02:54:19.882Z,14.70
2023-05-18T02:55:19.874Z,14.66
2023-05-18T02:56:19.918Z,14.61
2023-05-18T02:57:19.938Z,14.58
2023-05-18T02:58:20.049Z,14.61
2023-05-18T02:59:20.146Z,14.61
2023-05-18T03:00:20.149Z,14.61
2023-05-18T03:01:20.321Z,14.60
2023-05-18T03:02:20.279Z,14.66
2023-05-18T03:03:20.416Z,14.66
2023-05-18T03:04:20.368Z,14.74
2023-05-18T03:05:20.401Z,14.77
2023-05-18T03:06:20.442Z,14.82
2023-05-18T03:07:20.458Z,14.84
2023-05-18T03:08:20.465Z,14.86
2023-05-18T03:09:20.502Z,14.79
2023-05-18T03:10:20.496Z,14.77
2023-05-18T03:11:20.558Z,14.72
2023-05-18T03:12:20.497Z,14.74
2023-05-18T03:13:20.498Z,14.64
2023-05-18T03:14:20.588Z,14.66
2023-05-18T03:15:20.637Z,14.56
2023-05-18T03:16:20.628Z,14.41
2023-05-18T03:17:20.642Z,14.37
2023-05-18T03:18:20.713Z,14.47
2023-05-18T03:19:20.738Z,14.54
2023-05-18T03:20:20.725Z,14.51
2023-05-18T03:21:20.712Z,14.60
2023-05-18T03:22:20.722Z,14.64
2023-05-18T03:23:20.668Z,14.74
2023-05-18T03:24:20.693Z,14.78
2023-05-18T03:25:20.637Z,14.79
2023-05-18T03:26:20.964Z,14.86
2023-05-18T03:27:20.663Z,14.89
2023-05-18T03:28:20.666Z,14.67
2023-05-18T03:29:20.646Z,14.78
2023-05-18T03:30:20.623Z,14.84
2023-05-18T03:31:20.723Z,14.81
2023-05-18T03:32:20.697Z,14.77
2023-05-18T03:33:20.760Z,14.79
2023-05-18T03:34:20.832Z,14.81
2023-05-18T03:35:20.862Z,14.71
2023-05-18T03:36:20.922Z,14.67
2023-05-18T03:37:21.000Z,14.74
2023-05-18T03:38:21.066Z,14.75
2023-05-18T03:39:21.069Z,14.82
2023-05-18T03:40:21.113Z,14.86
2023-05-18T03:41:21.113Z,14.94
2023-05-18T03:42:21.164Z,14.96
2023-05-18T03:43:21.193Z,14.94
2023-05-18T03:44:21.215Z,14.88
2023-05-18T03:45:21.245Z,14.94
2023-05-18T03:46:21.305Z,14.85
2023-05-18T03:47:21.301Z,14.85
2023-05-18T03:48:21.320Z,14.91
2023-05-18T03:49:21.331Z,14.89
2023-05-18T03:50:21.381Z,14.94
2023-05-18T03:51:21.342Z,14.98
2023-05-18T03:52:21.414Z,14.98
2023-05-18T03:53:21.461Z,15.02
2023-05-18T03:54:21.416Z,15.07
2023-05-18T03:55:21.476Z,15.07
2023-05-18T03:56:21.460Z,15.13
2023-05-18T03:57:21.500Z,15.10
2023-05-18T03:58:21.538Z,15.03
2023-05-18T03:59:21.557Z,14.94
2023-05-18T04:00:21.625Z,14.89
2023-05-18T04:01:21.643Z,14.78
2023-05-18T04:02:21.724Z,14.75
2023-05-18T04:03:21.804Z,14.74
2023-05-18T04:04:21.837Z,14.81
2023-05-18T04:05:21.756Z,14.89
2023-05-18T04:06:21.821Z,14.99
2023-05-18T04:07:21.820Z,15.05
2023-05-18T04:08:21.870Z,15.06
2023-05-18T04:09:21.835Z,15.12
2023-05-18T04:10:21.878Z,15.12
2023-05-18T04:11:21.906Z,15.15
2023-05-18T04:12:21.947Z,15.16
2023-05-18T04:13:22.053Z,15.23
2023-05-18T04:14:22.083Z,15.27
2023-05-18T04:15:22.216Z,15.30
2023-05-18T04:16:22.209Z,15.33
2023-05-18T04:17:22.203Z,15.34
2023-05-18T04:18:22.146Z,15.34
2023-05-18T04:19:22.174Z,15.39
2023-05-18T04:20:22.188Z,15.27
2023-05-18T04:21:22.177Z,15.29
2023-05-18T04:22:22.231Z,15.30
2023-05-18T04:23:22.288Z,15.06
2023-05-18T04:24:22.409Z,15.10
2023-05-18T04:25:22.412Z,15.12
2023-05-18T04:26:22.418Z,14.98
2023-05-18T04:27:22.497Z,15.07
2023-05-18T04:28:22.499Z,15.09
2023-05-18T04:29:22.566Z,15.09
2023-05-18T04:30:22.640Z,15.18
2023-05-18T04:31:22.596Z,15.19
2023-05-18T04:32:22.584Z,15.16
2023-05-18T04:33:22.647Z,14.98
2023-05-18T04:34:22.623Z,15.06
2023-05-18T04:35:22.690Z,15.07
2023-05-18T04:36:22.650Z,15.16
2023-05-18T04:37:22.690Z,15.21
2023-05-18T04:38:22.698Z,15.25
2023-05-18T04:39:22.771Z,15.29
2023-05-18T04:40:22.858Z,15.30
2023-05-18T04:41:22.952Z,15.34
2023-05-18T04:42:22.927Z,15.39
2023-05-18T04:43:22.951Z,15.41
2023-05-18T04:44:22.954Z,15.37
2023-05-18T04:45:23.031Z,15.37
2023-05-18T04:46:23.052Z,15.40
2023-05-18T04:47:23.072Z,15.29
2023-05-18T04:48:23.104Z,15.03
2023-05-18T04:49:23.189Z,14.84
2023-05-18T04:50:23.233Z,14.61
2023-05-18T04:51:23.294Z,14.40
2023-05-18T04:52:23.341Z,14.26
2023-05-18T04:53:23.412Z,14.26
2023-05-18T04:54:23.521Z,14.24
2023-05-18T04:55:23.523Z,14.29
2023-05-18T04:56:23.631Z,14.34
2023-05-18T04:57:23.693Z,14.33
2023-05-18T04:58:23.696Z,14.40
2023-05-18T04:59:23.764Z,14.56
2023-05-18T05:00:23.775Z,14.41
2023-05-18T05:02:51.732Z,14.26
2023-05-18T05:03:44.115Z,14.41
2023-05-18T05:04:43.811Z,14.20
2023-05-18T05:05:43.785Z,14.13
2023-05-18T05:06:43.829Z,14.23
2023-05-18T05:07:43.722Z,14.44
2023-05-18T05:08:44.420Z,14.45
2023-05-18T05:09:43.771Z,14.60
2023-05-18T05:10:43.745Z,14.66
2023-05-18T05:11:43.699Z,14.81
2023-05-18T05:12:45.704Z,14.94
2023-05-18T05:13:43.836Z,15.03
2023-05-18T05:14:43.873Z,15.12
2023-05-18T05:15:43.895Z,15.22
2023-05-18T05:16:43.852Z,15.30
2023-05-18T05:17:43.929Z,15.32
2023-05-18T05:18:44.700Z,15.34
2023-05-18T05:19:44.494Z,15.12
2023-05-18T05:20:43.900Z,15.12
2023-05-18T05:21:43.756Z,15.22
2023-05-18T05:22:43.761Z,15.21
2023-05-18T05:23:43.775Z,15.29
2023-05-18T05:24:44.442Z,15.29
2023-05-18T05:25:43.780Z,15.15
2023-05-18T05:26:43.712Z,15.16
2023-05-18T05:27:43.734Z,15.23
2023-05-18T05:28:43.772Z,15.32
2023-05-18T05:29:43.725Z,15.40
2023-05-18T05:30:43.738Z,15.39
2023-05-18T05:31:43.789Z,15.33
2023-05-18T05:32:43.826Z,15.06
2023-05-18T05:33:43.680Z,15.05
2023-05-18T05:34:43.728Z,15.21
2023-05-18T05:35:43.657Z,14.95
2023-05-18T05:36:44.478Z,15.07
2023-05-18T05:37:43.616Z,15.21
2023-05-18T05:38:43.631Z,15.30
2023-05-18T05:39:43.645Z,15.37
2023-05-18T05:40:43.624Z,15.56
2023-05-18T05:41:43.624Z,15.68
2023-05-18T05:42:43.626Z,15.71
2023-05-18T05:43:43.637Z,15.82
2023-05-18T05:44:44.464Z,15.77
2023-05-18T05:45:51.502Z,15.92
2023-05-18T05:46:43.571Z,16.06
2023-05-18T05:47:43.599Z,16.11
2023-05-18T05:48:43.522Z,16.20
2023-05-18T05:49:43.503Z,16.22
2023-05-18T05:50:43.540Z,16.26
2023-05-18T05:51:43.492Z,15.92
2023-05-18T05:52:43.546Z,15.61
2023-05-18T05:53:43.466Z,15.49
2023-05-18T05:54:43.480Z,15.50
2023-05-18T05:55:43.461Z,15.58
2023-05-18T05:56:43.486Z,15.71
2023-05-18T05:57:43.477Z,15.91
2023-05-18T05:58:43.458Z,15.96
2023-05-18T05:59:43.444Z,16.04
2023-05-18T06:00:43.474Z,16.17
2023-05-18T06:01:43.525Z,16.24
2023-05-18T06:02:43.530Z,16.30
2023-05-18T06:03:43.500Z,16.39
2023-05-18T06:04:43.470Z,16.30
2023-05-18T06:05:43.504Z,16.33
2023-05-18T06:06:43.531Z,16.43
2023-05-18T06:07:43.551Z,16.44
2023-05-18T06:08:43.577Z,16.47
2023-05-18T06:09:43.636Z,16.50
2023-05-18T06:10:43.651Z,16.57
2023-05-18T06:11:43.651Z,16.56
2023-05-18T06:12:43.602Z,16.58
2023-05-18T06:13:43.602Z,16.61
2023-05-18T06:14:43.621Z,16.61
2023-05-18T06:15:43.629Z,16.67
2023-05-18T06:16:43.656Z,16.47
2023-05-18T06:17:43.655Z,16.47
2023-05-18T06:18:43.640Z,16.47
2023-05-18T06:19:43.603Z,16.32
2023-05-18T06:20:43.563Z,16.13
2023-05-18T06:21:43.605Z,16.06
2023-05-18T06:22:43.652Z,15.56
2023-05-18T06:23:43.658Z,15.75
2023-05-18T06:24:43.644Z,15.96
2023-05-18T06:25:43.675Z,16.02
2023-05-18T06:26:43.786Z,16.17
2023-05-18T06:27:43.815Z,16.30
2023-05-18T06:28:43.778Z,16.44
2023-05-18T06:29:43.743Z,16.57
2023-05-18T06:30:43.794Z,16.68
2023-05-18T06:31:43.832Z,16.79
2023-05-18T06:32:43.911Z,16.89
2023-05-18T06:33:43.865Z,16.96
2023-05-18T06:34:43.922Z,17.06
2023-05-18T06:35:43.995Z,17.12
2023-05-18T06:36:44.044Z,17.02
2023-05-18T06:37:46.193Z,17.13
2023-05-18T06:38:44.049Z,17.12
2023-05-18T06:39:44.053Z,16.99
2023-05-18T06:40:44.004Z,16.72
2023-05-18T06:41:44.067Z,16.81
2023-05-18T06:42:43.974Z,16.88
2023-05-18T06:43:44.000Z,16.79
2023-05-18T06:44:43.980Z,16.82
2023-05-18T06:45:44.037Z,16.96
2023-05-18T06:46:44.110Z,16.85
2023-05-18T06:47:44.050Z,16.64
2023-05-18T06:48:43.965Z,16.77
2023-05-18T06:49:43.962Z,16.89
2023-05-18T06:50:43.963Z,17.08
2023-05-18T06:51:44.071Z,17.19
2023-05-18T06:52:43.913Z,17.27
2023-05-18T06:53:43.952Z,17.36
2023-05-18T06:54:44.010Z,17.39
2023-05-18T06:55:43.987Z,17.53
2023-05-18T06:56:43.997Z,17.67
2023-05-18T06:57:44.040Z,17.77
2023-05-18T06:58:44.080Z,17.53
2023-05-18T06:59:44.094Z,17.33
2023-05-18T07:00:44.072Z,17.53
2023-05-18T07:01:44.172Z,17.61
2023-05-18T07:02:44.183Z,17.56
2023-05-18T07:03:44.283Z,16.81
2023-05-18T07:04:44.235Z,17.04
2023-05-18T07:05:44.257Z,17.25
2023-05-18T07:06:44.280Z,17.40
2023-05-18T07:07:44.272Z,17.25
2023-05-18T07:08:44.249Z,17.46
2023-05-18T07:09:44.261Z,17.39
2023-05-18T07:10:44.270Z,17.16
2023-05-18T07:11:44.312Z,17.30
2023-05-18T07:12:44.269Z,17.50
2023-05-18T07:13:44.284Z,17.47
2023-05-18T07:14:44.312Z,17.60
2023-05-18T07:15:44.306Z,17.63
2023-05-18T07:16:44.302Z,17.77
2023-05-18T07:17:44.360Z,17.66
2023-05-18T07:18:44.354Z,17.22
2023-05-18T07:19:44.349Z,17.26
2023-05-18T07:20:44.370Z,17.41
2023-05-18T07:21:44.361Z,16.92
2023-05-18T07:22:44.380Z,17.22
2023-05-18T07:23:44.372Z,17.37
2023-05-18T07:24:44.363Z,17.41
2023-05-18T07:25:44.393Z,17.51
2023-05-18T07:26:44.410Z,17.53
2023-05-18T07:27:44.442Z,17.40
2023-05-18T07:28:44.422Z,17.47
2023-05-18T07:29:44.451Z,17.61
2023-05-18T07:30:44.533Z,17.63
2023-05-18T07:31:44.556Z,17.74
2023-05-18T07:32:44.567Z,17.88
2023-05-18T07:33:44.533Z,18.01
2023-05-18T07:34:44.506Z,18.08
2023-05-18T07:35:44.497Z,17.91
2023-05-18T07:36:45.411Z,18.04
2023-05-18T07:37:44.450Z,18.13
2023-05-18T07:38:44.488Z,18.28
2023-05-18T07:39:44.487Z,18.19
2023-05-18T07:40:44.441Z,18.28
2023-05-18T07:41:44.506Z,18.25
2023-05-18T07:42:44.442Z,18.23
2023-05-18T07:43:44.426Z,18.25
2023-05-18T07:44:44.444Z,18.43
2023-05-18T07:45:44.543Z,18.53
2023-05-18T07:46:44.680Z,18.49
2023-05-18T07:47:44.698Z,18.72
2023-05-18T07:48:44.653Z,18.72
2023-05-18T07:49:44.762Z,18.64
2023-05-18T07:50:44.814Z,18.70
2023-05-18T07:51:44.881Z,18.91
2023-05-18T07:52:44.875Z,18.97
2023-05-18T07:53:44.901Z,18.93
2023-05-18T07:54:44.973Z,18.78
2023-05-18T07:55:44.929Z,18.60
2023-05-18T07:56:45.049Z,18.88
2023-05-18T07:57:45.097Z,18.88
2023-05-18T07:58:45.192Z,18.85
2023-05-18T07:59:45.243Z,18.97
2023-05-18T08:00:45.265Z,19.08
2023-05-18T08:01:45.401Z,19.05
2023-05-18T08:02:45.460Z,19.04
2023-05-18T08:03:45.393Z,19.19
2023-05-18T08:04:45.312Z,19.26
2023-05-18T08:05:45.363Z,19.12
2023-05-18T08:06:45.430Z,19.09
2023-05-18T08:07:45.422Z,19.29
2023-05-18T08:08:53.082Z,19.41
2023-05-18T08:09:45.463Z,19.13
2023-05-18T08:10:45.461Z,19.34
2023-05-18T08:11:45.444Z,19.26
2023-05-18T08:12:45.434Z,19.23
2023-05-18T08:13:45.427Z,19.49
2023-05-18T08:14:45.394Z,19.47
2023-05-18T08:15:46.377Z,19.66
2023-05-18T08:16:45.460Z,19.73
2023-05-18T08:17:45.436Z,19.89
2023-05-18T08:18:45.461Z,19.77
2023-05-18T08:19:45.379Z,19.81
2023-05-18T08:20:45.403Z,19.75
2023-05-18T08:21:45.395Z,19.43
2023-05-18T08:22:45.392Z,19.40
2023-05-18T08:23:45.357Z,19.34
2023-05-18T08:24:45.366Z,19.63
2023-05-18T08:25:45.367Z,19.64
2023-05-18T08:26:45.994Z,19.75
2023-05-18T08:27:45.341Z,19.67
2023-05-18T08:28:45.363Z,19.82
2023-05-18T08:29:45.311Z,19.98
2023-05-18T08:30:45.297Z,19.94
2023-05-18T08:31:47.009Z,19.91
2023-05-18T08:32:45.350Z,19.91
2023-05-18T08:33:45.258Z,19.61
2023-05-18T08:34:45.270Z,19.71
2023-05-18T08:35:45.280Z,19.64
2023-05-18T08:36:45.274Z,19.57
2023-05-18T08:37:45.287Z,19.52
2023-05-18T08:38:45.230Z,19.34
2023-05-18T08:39:45.242Z,19.57
2023-05-18T08:40:45.252Z,19.68
2023-05-18T08:41:45.209Z,19.78
2023-05-18T08:42:49.911Z,19.94
2023-05-18T08:43:46.261Z,20.12
2023-05-18T08:44:45.225Z,20.04
2023-05-18T08:45:45.191Z,20.19
2023-05-18T08:46:45.190Z,20.25
2023-05-18T08:47:45.301Z,20.33
2023-05-18T08:48:45.185Z,20.43
2023-05-18T08:49:45.167Z,20.40
2023-05-18T08:50:45.216Z,20.29
2023-05-18T08:51:45.190Z,20.16
2023-05-18T08:52:45.126Z,20.16
2023-05-18T08:53:45.153Z,20.07
2023-05-18T08:54:45.154Z,20.05
2023-05-18T08:55:45.164Z,19.99
2023-05-18T08:56:45.223Z,20.42
2023-05-18T08:57:56.691Z,20.58
2023-05-18T08:58:45.350Z,20.60
2023-05-18T08:59:45.382Z,20.57
2023-05-18T09:00:45.375Z,20.74
2023-05-18T09:01:45.527Z,20.76
2023-05-18T09:02:45.530Z,20.37
2023-05-18T09:03:45.509Z,20.50
2023-05-18T09:04:45.489Z,20.58
2023-05-18T09:05:45.497Z,20.43
2023-05-18T09:06:45.503Z,20.44
2023-05-18T09:07:45.495Z,20.44
2023-05-18T09:08:45.456Z,20.35
2023-05-18T09:09:45.453Z,19.92
2023-05-18T09:10:45.407Z,19.99
2023-05-18T09:11:45.412Z,20.11
2023-05-18T09:12:45.448Z,20.25
2023-05-18T09:13:45.449Z,20.08
2023-05-18T09:14:45.384Z,19.77
2023-05-18T09:15:45.513Z,19.88
2023-05-18T09:16:45.528Z,20.07
2023-05-18T09:17:45.592Z,19.98
2023-05-18T09:18:45.692Z,20.15
2023-05-18T09:19:45.676Z,20.30
2023-05-18T09:20:45.652Z,20.30
2023-05-18T09:21:45.652Z,20.47
2023-05-18T09:22:45.682Z,20.63
2023-05-18T09:23:45.706Z,20.68
2023-05-18T09:24:45.737Z,20.44
2023-05-18T09:25:45.741Z,20.39
2023-05-18T09:26:45.769Z,20.35
2023-05-18T09:27:45.771Z,20.22
2023-05-18T09:28:45.809Z,20.08
2023-05-18T09:29:45.882Z,20.26
2023-05-18T09:30:45.942Z,20.35
2023-05-18T09:31:46.031Z,20.12
2023-05-18T09:32:46.123Z,20.44
2023-05-18T09:33:46.160Z,20.53
2023-05-18T09:34:46.163Z,20.50
2023-05-18T09:35:47.116Z,20.32
2023-05-18T09:36:46.125Z,20.35
2023-05-18T09:37:46.081Z,20.36
2023-05-18T09:38:46.277Z,20.11
2023-05-18T09:39:46.058Z,20.02
2023-05-18T09:40:46.070Z,20.12
2023-05-18T09:41:46.056Z,20.12
2023-05-18T09:42:46.080Z,20.25
2023-05-18T09:43:46.072Z,20.42
2023-05-18T09:44:46.056Z,20.54
2023-05-18T09:45:46.076Z,20.66
2023-05-18T09:46:46.131Z,20.63
2023-05-18T09:47:46.111Z,20.49
2023-05-18T09:48:46.077Z,20.60
2023-05-18T09:49:46.002Z,20.73
2023-05-18T09:50:45.963Z,20.71
2023-05-18T09:51:46.488Z,20.63
2023-05-18T09:52:46.010Z,20.74
2023-05-18T09:53:46.348Z,20.80
2023-05-18T09:54:46.017Z,20.80
2023-05-18T09:55:46.347Z,20.85
2023-05-18T09:56:52.284Z,20.94
2023-05-18T09:57:47.102Z,20.84
2023-05-18T09:58:46.124Z,20.78
2023-05-18T09:59:46.062Z,20.97
2023-05-18T10:00:46.131Z,21.02
2023-05-18T10:01:46.056Z,20.95
2023-05-18T10:02:46.070Z,20.95
2023-05-18T10:03:46.163Z,21.05
2023-05-18T10:04:46.104Z,21.15
2023-05-18T10:05:46.035Z,21.15
2023-05-18T10:06:46.098Z,20.74
2023-05-18T10:07:46.133Z,20.77
2023-05-18T10:08:46.000Z,20.67
2023-05-18T10:09:46.023Z,20.84
2023-05-18T10:10:46.010Z,20.63
2023-05-18T10:11:46.356Z,20.80
2023-05-18T10:12:46.044Z,20.80
2023-05-18T10:13:45.980Z,20.63
2023-05-18T10:14:45.964Z,20.56
2023-05-18T10:15:46.002Z,20.26
2023-05-18T10:16:46.106Z,20.54
2023-05-18T10:17:46.066Z,19.85
2023-05-18T10:18:46.045Z,20.30
2023-05-18T10:19:46.093Z,20.39
2023-05-18T10:20:46.148Z,20.28
2023-05-18T10:21:46.142Z,20.46
2023-05-18T10:22:46.270Z,20.54
2023-05-18T10:23:46.223Z,20.62
2023-05-18T10:24:46.225Z,20.60
2023-05-18T10:25:46.198Z,20.68
2023-05-18T10:26:46.240Z,20.80
2023-05-18T10:27:46.185Z,20.93
2023-05-18T10:28:46.193Z,21.08
2023-05-18T10:29:46.194Z,21.08
2023-05-18T10:30:46.189Z,20.93
2023-05-18T10:31:46.296Z,21.11
2023-05-18T10:32:46.200Z,21.02
2023-05-18T10:33:46.189Z,21.05
2023-05-18T10:34:46.187Z,21.22
2023-05-18T10:35:46.241Z,21.22
2023-05-18T10:36:46.210Z,21.26
2023-05-18T10:37:46.215Z,21.40
2023-05-18T10:38:46.176Z,21.40
2023-05-18T10:39:46.210Z,21.47
2023-05-18T10:40:46.177Z,21.36
2023-05-18T10:41:46.130Z,21.39
2023-05-18T10:42:46.165Z,21.30
2023-05-18T10:43:46.136Z,21.22
2023-05-18T10:44:46.164Z,21.15
2023-05-18T10:45:46.105Z,21.15
2023-05-18T10:46:46.186Z,21.36
2023-05-18T10:47:46.255Z,21.45
2023-05-18T10:48:47.940Z,21.52
2023-05-18T10:49:46.116Z,21.66
2023-05-18T10:50:46.112Z,21.50
2023-05-18T10:51:46.117Z,21.61
2023-05-18T10:52:46.083Z,21.46
2023-05-18T10:53:46.072Z,21.26
2023-05-18T10:54:46.067Z,21.32
2023-05-18T10:55:46.031Z,21.33
2023-05-18T10:56:46.036Z,21.56
2023-05-18T10:57:46.050Z,21.52
2023-05-18T10:58:46.062Z,21.67
2023-05-18T10:59:48.077Z,21.72
2023-05-18T11:00:46.226Z,21.80
2023-05-18T11:01:46.334Z,21.83
2023-05-18T11:02:46.696Z,21.13
2023-05-18T11:03:46.300Z,21.06
2023-05-18T11:04:46.373Z,21.36
2023-05-18T11:05:46.377Z,21.43
2023-05-18T11:06:46.411Z,21.16
2023-05-18T11:07:46.425Z,21.13
2023-05-18T11:08:46.503Z,21.04
2023-05-18T11:09:46.501Z,20.95
2023-05-18T11:10:46.540Z,21.02
2023-05-18T11:11:46.636Z,21.25
2023-05-18T11:12:46.621Z,21.39
2023-05-18T11:13:46.659Z,21.43
2023-05-18T11:14:46.637Z,21.39
2023-05-18T11:15:46.661Z,21.43
2023-05-18T11:16:46.712Z,21.54
2023-05-18T11:17:46.667Z,21.74
2023-05-18T11:18:46.758Z,21.88
2023-05-18T11:19:46.662Z,21.78
2023-05-18T11:20:46.619Z,21.98
2023-05-18T11:21:46.634Z,22.00
2023-05-18T11:22:46.763Z,21.67
2023-05-18T11:23:46.621Z,21.70
2023-05-18T11:24:46.626Z,21.67
2023-05-18T11:25:46.629Z,21.33
2023-05-18T11:26:46.659Z,21.46
2023-05-18T11:27:46.660Z,21.39
2023-05-18T11:28:47.854Z,21.36
2023-05-18T11:29:46.793Z,21.38
2023-05-18T11:30:46.684Z,20.97
2023-05-18T11:31:46.730Z,21.08
2023-05-18T11:32:46.757Z,21.01
2023-05-18T11:33:46.726Z,21.22
2023-05-18T11:34:46.673Z,20.93
2023-05-18T11:35:46.664Z,21.21
2023-05-18T11:36:46.627Z,20.91
2023-05-18T11:37:46.629Z,21.29
2023-05-18T11:38:46.797Z,21.54
2023-05-18T11:39:58.159Z,21.54
2023-05-18T11:40:46.625Z,21.40
2023-05-18T11:41:46.660Z,21.68
2023-05-18T11:42:46.645Z,21.81
2023-05-18T11:43:46.565Z,21.83
2023-05-18T11:44:46.622Z,21.28
2023-05-18T11:45:46.613Z,21.61
2023-05-18T11:46:46.658Z,21.66
2023-05-18T11:47:46.607Z,21.83
2023-05-18T11:48:46.676Z,21.68
2023-05-18T11:49:46.547Z,21.78
2023-05-18T11:50:46.509Z,21.70
2023-05-18T11:51:46.520Z,21.63
2023-05-18T11:52:46.519Z,21.64
2023-05-18T11:53:46.529Z,21.67
2023-05-18T11:54:46.487Z,21.56
2023-05-18T11:55:46.512Z,21.76
2023-05-18T11:56:46.566Z,21.53
2023-05-18T11:57:46.633Z,21.67
2023-05-18T11:58:46.634Z,21.39
2023-05-18T11:59:46.689Z,21.42
2023-05-18T12:00:46.673Z,21.47
2023-05-18T12:01:46.784Z,21.49
2023-05-18T12:02:46.862Z,21.60
2023-05-18T12:03:48.623Z,21.53
2023-05-18T12:04:46.788Z,21.35
2023-05-18T12:05:46.728Z,21.43
2023-05-18T12:06:46.730Z,21.64
2023-05-18T12:07:46.707Z,21.58
2023-05-18T12:08:46.734Z,21.67
2023-05-18T12:09:46.740Z,21.84
2023-05-18T12:10:46.814Z,21.97
2023-05-18T12:11:46.821Z,21.74
2023-05-18T12:12:46.797Z,21.77
2023-05-18T12:13:46.867Z,21.91
2023-05-18T12:14:46.878Z,21.95
2023-05-18T12:15:46.871Z,22.08
2023-05-18T12:16:46.972Z,21.88
2023-05-18T12:17:46.995Z,22.19
2023-05-18T12:18:46.960Z,22.18
2023-05-18T12:19:46.929Z,22.39
2023-05-18T12:20:46.972Z,22.40
2023-05-18T12:21:46.932Z,22.08
2023-05-18T12:22:46.947Z,22.07
2023-05-18T12:23:46.932Z,21.97
2023-05-18T12:24:46.918Z,21.93
2023-05-18T12:25:46.952Z,21.91
2023-05-18T12:26:46.923Z,21.97
2023-05-18T12:27:46.906Z,22.12
2023-05-18T12:28:46.928Z,22.27
2023-05-18T12:29:46.920Z,22.23
2023-05-18T12:30:46.933Z,22.46
2023-05-18T12:31:46.885Z,22.68
2023-05-18T12:32:46.938Z,22.83
2023-05-18T12:33:46.896Z,22.76
2023-05-18T12:34:46.902Z,22.87
2023-05-18T12:35:46.921Z,22.98
2023-05-18T12:36:47.004Z,22.95
2023-05-18T12:37:47.563Z,23.05
2023-05-18T12:38:47.022Z,23.15
2023-05-18T12:39:47.097Z,23.14
2023-05-18T12:40:47.158Z,23.00
2023-05-18T12:41:47.163Z,22.64
2023-05-18T12:42:47.254Z,21.76
2023-05-18T12:43:47.263Z,22.16
2023-05-18T12:44:47.327Z,22.01
2023-05-18T12:45:47.343Z,21.74
2023-05-18T12:46:47.349Z,22.04
2023-05-18T12:47:47.484Z,21.93
2023-05-18T12:48:47.420Z,21.94
2023-05-18T12:49:47.369Z,21.58
2023-05-18T12:50:47.452Z,21.58
2023-05-18T12:51:47.493Z,21.67
2023-05-18T12:52:47.464Z,21.97
2023-05-18T12:53:47.483Z,22.12